Time;durP1;ratioP1;P1;durP2;ratioP2;P2;SDS_P1;SDS_P2;PMS_P1;PMS_P2;Temp;Humidity;BMP_temperature;BMP_pressure;BME280_temperature;BME280_humidity;BME280_pressure;Samples;Min_cycle;Max_cycle;Signal;HPM_P1;HPM_P2
2022/07/31 00:00:29;;;;;;;25.53;11.00;;;;;;;15.02;100.00;99371.25;4183560;28;20240;-64
2022/07/31 00:02:57;;;;;;;24.37;10.13;;;;;;;15.03;100.00;99366.72;4203275;28;20287;-61
2022/07/31 00:05:24;;;;;;;25.13;10.10;;;;;;;15.00;100.00;99367.94;4196825;28;21510;-62
2022/07/31 00:07:52;;;;;;;19.20;9.97;;;;;;;14.98;100.00;99365.50;4200345;28;20239;-62
2022/07/31 00:10:19;;;;;;;23.30;9.00;;;;;;;14.98;100.00;99370.00;4202454;28;21142;-63
2022/07/31 00:12:45;;;;;;;13.93;8.83;;;;;;;14.98;100.00;99364.63;4217903;28;20293;-63
2022/07/31 00:15:12;;;;;;;16.70;8.20;;;;;;;15.04;100.00;99371.06;4195311;28;20793;-62
2022/07/31 00:17:39;;;;;;;17.40;7.93;;;;;;;15.05;100.00;99368.16;4199689;28;21274;-63
2022/07/31 00:20:07;;;;;;;22.20;8.50;;;;;;;15.04;100.00;99363.03;4192513;28;20576;-63
2022/07/31 00:22:34;;;;;;;17.83;8.70;;;;;;;15.03;100.00;99358.69;4202620;28;22650;-65
2022/07/31 00:25:01;;;;;;;18.90;7.97;;;;;;;15.07;100.00;99360.75;4201300;28;20233;-63
2022/07/31 00:27:28;;;;;;;18.50;8.53;;;;;;;15.04;100.00;99355.81;4199861;28;20233;-62
2022/07/31 00:29:54;;;;;;;15.67;8.27;;;;;;;15.07;100.00;99355.41;4198901;28;25433;-62
2022/07/31 00:32:21;;;;;;;14.77;7.90;;;;;;;15.09;100.00;99355.22;4198755;28;20326;-63
2022/07/31 00:34:47;;;;;;;14.67;7.90;;;;;;;15.04;100.00;99350.44;4199158;28;20586;-61
2022/07/31 00:37:14;;;;;;;18.63;8.70;;;;;;;14.99;100.00;99348.38;4197277;28;20246;-63
2022/07/31 00:39:41;;;;;;;20.93;9.10;;;;;;;15.01;100.00;99342.81;4195814;28;20245;-63
2022/07/31 00:42:18;;;;;;;22.97;9.70;;;;;;;15.07;100.00;99341.19;4196493;28;22972;-64
2022/07/31 00:44:44;;;;;;;20.53;9.60;;;;;;;15.05;100.00;99340.56;4201596;28;20291;-62
2022/07/31 00:47:13;;;;;;;22.83;9.93;;;;;;;15.04;100.00;99341.59;4197465;28;20233;-63
2022/07/31 00:49:40;;;;;;;21.33;9.63;;;;;;;15.06;100.00;99337.69;4194892;28;20304;-61
2022/07/31 00:52:07;;;;;;;25.00;10.00;;;;;;;15.05;100.00;99345.91;4198663;28;23767;-62
2022/07/31 00:54:34;;;;;;;22.97;9.53;;;;;;;15.02;100.00;99325.72;4200147;28;20353;-61
2022/07/31 00:57:01;;;;;;;24.23;10.30;;;;;;;15.00;100.00;99327.75;4196104;28;20625;-62
2022/07/31 00:59:29;;;;;;;18.97;9.80;;;;;;;14.96;100.00;99331.84;4195773;28;21713;-62
2022/07/31 01:01:56;;;;;;;18.93;9.53;;;;;;;14.98;100.00;99337.84;4194525;28;20237;-62
2022/07/31 01:04:25;;;;;;;22.80;10.10;;;;;;;14.97;100.00;99333.53;4201213;28;20311;-61
2022/07/31 01:06:52;;;;;;;24.37;9.80;;;;;;;14.96;100.00;99331.84;4191114;28;20247;-60
2022/07/31 01:09:19;;;;;;;18.93;9.60;;;;;;;14.91;100.00;99331.66;4196903;28;21839;-64
2022/07/31 01:12:18;;;;;;;17.97;9.77;;;;;;;14.88;100.00;99329.38;4194954;28;21136;-63
2022/07/31 01:14:53;;;;;;;18.57;9.40;;;;;;;14.88;100.00;99324.84;4191007;28;20265;-62
2022/07/31 01:17:21;;;;;;;21.80;10.87;;;;;;;14.91;100.00;99323.59;4202592;28;20289;-62
2022/07/31 01:19:49;;;;;;;27.43;10.23;;;;;;;14.87;100.00;99328.56;4200183;28;23114;-63
2022/07/31 01:22:15;;;;;;;30.30;11.03;;;;;;;14.82;100.00;99322.97;4200382;28;20245;-63
2022/07/31 01:25:06;;;;;;;34.90;12.00;;;;;;;14.81;100.00;99317.81;4192940;28;20237;-62
2022/07/31 01:27:51;;;;;;;32.70;11.37;;;;;;;14.79;100.00;99309.97;4200817;28;20351;-61
2022/07/31 01:30:19;;;;;;;29.37;11.60;;;;;;;14.84;100.00;99312.03;4212137;28;20243;-63
2022/07/31 01:32:47;;;;;;;23.40;10.17;;;;;;;14.84;100.00;99306.69;4192882;28;20331;-61
2022/07/31 01:35:17;;;;;;;25.37;10.03;;;;;;;14.80;100.00;99310.78;4203209;28;21646;-62
2022/07/31 01:37:52;;;;;;;23.50;10.03;;;;;;;14.82;100.00;99298.03;4197889;28;20918;-63
2022/07/31 01:40:26;;;;;;;18.97;8.93;;;;;;;14.83;100.00;99287.13;4194524;28;21749;-62
2022/07/31 01:42:59;;;;;;;20.60;8.97;;;;;;;14.81;100.00;99278.44;4200402;28;20276;-63
2022/07/31 01:45:27;;;;;;;18.63;9.30;;;;;;;14.71;100.00;99278.84;4199506;28;22029;-62
2022/07/31 01:47:54;;;;;;;17.63;9.07;;;;;;;14.76;100.00;99278.25;4187210;28;21109;-62
2022/07/31 01:50:22;;;;;;;19.37;9.57;;;;;;;14.76;100.00;99272.88;4196901;28;20249;-61
2022/07/31 01:53:09;;;;;;;18.57;9.37;;;;;;;14.73;100.00;99274.09;4191269;28;21350;-61
2022/07/31 01:55:38;;;;;;;21.10;9.67;;;;;;;14.71;100.00;99268.13;4200855;28;20237;-61
2022/07/31 01:58:25;;;;;;;19.33;9.40;;;;;;;14.78;100.00;99268.16;4209451;28;20352;-61
2022/07/31 02:00:54;;;;;;;23.03;10.37;;;;;;;14.74;100.00;99265.03;4205612;28;20248;-63
2022/07/31 02:03:23;;;;;;;31.70;11.30;;;;;;;14.73;100.00;99267.94;4200357;28;21872;-64
2022/07/31 02:06:12;;;;;;;22.47;9.63;;;;;;;14.80;100.00;99267.94;4194000;28;20247;-64
2022/07/31 02:08:38;;;;;;;28.57;10.57;;;;;;;14.73;100.00;99268.75;4199591;28;20233;-61
2022/07/31 02:11:06;;;;;;;28.33;9.70;;;;;;;14.72;100.00;99269.75;4203032;28;26168;-60
2022/07/31 02:13:34;;;;;;;22.13;9.73;;;;;;;14.72;100.00;99267.09;4185455;28;20229;-61
2022/07/31 02:16:01;;;;;;;16.67;8.57;;;;;;;14.79;100.00;99267.13;4196290;28;20276;-63
2022/07/31 02:18:31;;;;;;;18.57;8.67;;;;;;;14.75;100.00;99269.38;4193124;28;20614;-62
2022/07/31 02:20:58;;;;;;;17.80;7.97;;;;;;;14.77;100.00;99274.53;4195170;28;20270;-62
2022/07/31 02:23:25;;;;;;;22.47;7.60;;;;;;;14.75;100.00;99272.06;4195602;28;21095;-62
2022/07/31 02:25:51;;;;;;;15.80;6.77;;;;;;;14.76;100.00;99268.34;4198049;28;21137;-61
2022/07/31 02:28:19;;;;;;;13.57;6.67;;;;;;;14.77;100.00;99280.72;4199045;28;20304;-63
2022/07/31 02:30:46;;;;;;;14.97;7.17;;;;;;;14.76;100.00;99275.56;4199995;28;20233;-62
2022/07/31 02:33:17;;;;;;;13.27;6.60;;;;;;;14.80;100.00;99267.94;4199288;28;20261;-66
2022/07/31 02:35:44;;;;;;;11.57;7.13;;;;;;;14.73;100.00;99262.56;4191541;28;21273;-63
2022/07/31 02:38:13;;;;;;;11.10;6.23;;;;;;;14.79;100.00;99259.06;4188640;28;21167;-64
2022/07/31 02:40:49;;;;;;;12.40;6.90;;;;;;;14.71;100.00;99253.91;4186321;28;22561;-61
2022/07/31 02:43:17;;;;;;;10.83;6.77;;;;;;;14.78;100.00;99258.25;4210217;28;20232;-62
2022/07/31 02:45:44;;;;;;;12.53;6.63;;;;;;;14.81;100.00;99265.06;4200822;28;20337;-62
2022/07/31 02:48:11;;;;;;;11.57;7.37;;;;;;;14.81;100.00;99253.53;4209222;28;21651;-62
2022/07/31 02:50:38;;;;;;;13.27;6.70;;;;;;;14.78;100.00;99255.56;4200968;28;20911;-61
2022/07/31 02:53:05;;;;;;;13.97;7.20;;;;;;;14.75;100.00;99256.00;4216272;28;20256;-64
2022/07/31 02:55:32;;;;;;;11.87;7.00;;;;;;;14.76;100.00;99259.50;4211489;28;20648;-61
2022/07/31 02:58:00;;;;;;;16.27;7.20;;;;;;;14.83;100.00;99257.66;4206653;28;22204;-62
2022/07/31 03:00:27;;;;;;;10.53;6.83;;;;;;;14.80;100.00;99254.53;4204999;28;20313;-62
2022/07/31 03:02:54;;;;;;;10.37;6.53;;;;;;;14.75;100.00;99250.63;4226256;28;20241;-63
2022/07/31 03:05:21;;;;;;;12.70;7.20;;;;;;;14.76;100.00;99251.44;4211547;28;21755;-64
2022/07/31 03:07:48;;;;;;;10.07;7.00;;;;;;;14.70;100.00;99245.06;4213772;28;21420;-61
2022/07/31 03:10:14;;;;;;;13.03;7.20;;;;;;;14.73;100.00;99252.69;4211206;28;20232;-60
2022/07/31 03:12:45;;;;;;;10.97;7.40;;;;;;;14.70;100.00;99245.06;4208832;28;26070;-62
2022/07/31 03:15:16;;;;;;;12.73;6.63;;;;;;;14.76;100.00;99246.09;4212302;28;20258;-60
2022/07/31 03:17:44;;;;;;;11.40;7.33;;;;;;;14.69;100.00;99227.31;4213509;28;20248;-61
2022/07/31 03:20:12;;;;;;;12.63;7.77;;;;;;;14.69;100.00;99235.38;4217830;28;20279;-62
2022/07/31 03:22:40;;;;;;;12.30;7.70;;;;;;;14.74;100.00;99237.44;4213562;28;20564;-63
2022/07/31 03:25:07;;;;;;;16.33;7.63;;;;;;;14.74;100.00;99235.56;4210948;28;21317;-64
2022/07/31 03:27:34;;;;;;;14.63;7.13;;;;;;;14.77;100.00;99237.88;4210689;28;20228;-63
2022/07/31 03:30:00;;;;;;;15.20;6.83;;;;;;;14.74;100.00;99232.09;4216563;28;21081;-61
2022/07/31 03:32:29;;;;;;;13.47;7.60;;;;;;;14.78;100.00;99236.84;4203683;28;22861;-62
2022/07/31 03:34:55;;;;;;;11.63;7.57;;;;;;;14.77;100.00;99231.66;4210179;28;20301;-63
2022/07/31 03:37:22;;;;;;;11.80;7.60;;;;;;;14.74;100.00;99230.22;4216871;28;20256;-63
2022/07/31 03:39:49;;;;;;;13.87;7.80;;;;;;;14.73;100.00;99220.56;4207315;28;20228;-62
2022/07/31 03:42:16;;;;;;;13.87;7.30;;;;;;;14.71;100.00;99222.59;4206610;28;20402;-61
2022/07/31 03:44:45;;;;;;;11.93;7.00;;;;;;;14.71;100.00;99227.13;4209275;28;20228;-62
2022/07/31 03:47:12;;;;;;;13.20;7.73;;;;;;;14.77;100.00;99219.13;4208452;28;20342;-61
2022/07/31 03:49:42;;;;;;;14.10;7.60;;;;;;;14.80;100.00;99222.41;4204307;28;20224;-60
2022/07/31 03:52:09;;;;;;;10.97;7.53;;;;;;;14.76;100.00;99214.78;4220737;28;20528;-63
2022/07/31 03:54:39;;;;;;;18.87;8.17;;;;;;;14.78;100.00;99211.91;4213073;28;20295;-62
2022/07/31 03:57:07;;;;;;;16.97;7.93;;;;;;;14.80;100.00;99209.84;4223540;28;20233;-62
2022/07/31 03:59:34;;;;;;;19.13;8.00;;;;;;;14.78;100.00;99217.25;4213799;28;20245;-61
2022/07/31 04:02:13;;;;;;;13.13;7.40;;;;;;;14.74;100.00;99216.00;4208860;28;20262;-61
2022/07/31 04:04:44;;;;;;;14.07;7.63;;;;;;;14.77;100.00;99211.09;4219286;28;20235;-61
2022/07/31 04:07:10;;;;;;;14.80;8.37;;;;;;;14.76;100.00;99204.06;4208346;28;20653;-60
2022/07/31 04:09:37;;;;;;;14.93;7.57;;;;;;;14.78;100.00;99206.56;4213199;28;21013;-62
2022/07/31 04:12:04;;;;;;;15.57;7.73;;;;;;;14.83;100.00;99203.28;4214738;28;20716;-62
2022/07/31 04:14:31;;;;;;;18.00;8.20;;;;;;;14.77;100.00;99203.06;4208939;28;20241;-62
2022/07/31 04:16:58;;;;;;;16.77;8.03;;;;;;;14.77;100.00;99195.03;4213841;28;20941;-62
2022/07/31 04:19:24;;;;;;;11.10;7.97;;;;;;;14.78;100.00;99193.97;4217589;28;20762;-63
2022/07/31 04:21:51;;;;;;;15.17;8.33;;;;;;;14.77;100.00;99187.00;4213282;28;20418;-62
2022/07/31 04:24:19;;;;;;;14.50;8.00;;;;;;;14.77;100.00;99192.34;4212903;28;21735;-62
2022/07/31 04:26:48;;;;;;;13.30;8.70;;;;;;;14.74;100.00;99184.69;4217869;28;20431;-61
2022/07/31 04:29:15;;;;;;;13.20;7.47;;;;;;;14.77;100.00;99186.16;4225644;28;21632;-62
2022/07/31 04:31:41;;;;;;;13.70;8.27;;;;;;;14.75;100.00;99183.69;4207909;28;20424;-62
2022/07/31 04:34:08;;;;;;;12.40;8.13;;;;;;;14.69;100.00;99184.47;4219234;28;20232;-63
2022/07/31 04:36:35;;;;;;;13.23;8.10;;;;;;;14.79;100.00;99192.13;4199839;28;20225;-62
2022/07/31 04:39:01;;;;;;;11.47;7.50;;;;;;;14.81;100.00;99189.25;4222968;28;20240;-62
2022/07/31 04:41:29;;;;;;;12.17;7.80;;;;;;;14.76;100.00;99190.69;4221252;28;20227;-62
2022/07/31 04:43:59;;;;;;;11.77;8.10;;;;;;;14.74;100.00;99184.69;4232393;28;20233;-62
2022/07/31 04:46:25;;;;;;;9.27;6.47;;;;;;;14.80;100.00;99188.44;4211828;28;20369;-62
2022/07/31 04:48:52;;;;;;;10.10;6.60;;;;;;;14.77;100.00;99184.31;4219284;28;21055;-62
2022/07/31 04:51:20;;;;;;;10.87;6.43;;;;;;;14.80;100.00;99187.59;4219541;28;22441;-61
2022/07/31 04:53:48;;;;;;;9.53;6.43;;;;;;;14.80;100.00;99187.59;4231047;28;21046;-62
2022/07/31 04:56:36;;;;;;;10.03;6.20;;;;;;;14.80;100.00;99188.44;4219544;28;21579;-63
2022/07/31 04:59:07;;;;;;;8.30;6.33;;;;;;;14.78;100.00;99185.94;4235090;28;20264;-62
2022/07/31 05:01:34;;;;;;;11.47;6.33;;;;;;;14.80;100.00;99187.59;4219931;28;21746;-63
2022/07/31 05:04:01;;;;;;;9.27;5.80;;;;;;;14.82;100.00;99193.56;4222888;28;20238;-62
2022/07/31 05:06:34;;;;;;;7.03;5.30;;;;;;;14.85;100.00;99193.19;4253662;28;20971;-63
2022/07/31 05:09:01;;;;;;;7.17;5.40;;;;;;;14.78;100.00;99191.31;4217734;28;20239;-63
2022/07/31 05:11:35;;;;;;;10.37;5.63;;;;;;;14.76;100.00;99185.31;4270141;28;21718;-64
2022/07/31 05:14:05;;;;;;;8.53;4.20;;;;;;;14.75;100.00;99185.53;4235933;28;20234;-63
2022/07/31 05:16:32;;;;;;;5.63;4.13;;;;;;;14.80;100.00;99187.59;4241957;28;20726;-65
2022/07/31 05:19:00;;;;;;;6.93;4.10;;;;;;;14.80;100.00;99192.94;4246421;28;20246;-62
2022/07/31 05:21:29;;;;;;;6.10;4.27;;;;;;;14.75;100.00;99186.38;4214783;28;20296;-62
2022/07/31 05:23:57;;;;;;;7.07;4.20;;;;;;;14.79;100.00;99181.41;4258679;28;20237;-61
2022/07/31 05:26:23;;;;;;;5.00;3.83;;;;;;;14.76;100.00;99187.19;4249537;28;20228;-63
2022/07/31 05:28:52;;;;;;;4.83;3.60;;;;;;;14.78;100.00;99191.31;4226150;28;20236;-66
2022/07/31 05:31:24;;;;;;;9.37;3.33;;;;;;;14.79;100.00;99181.41;4237361;28;21263;-63
2022/07/31 05:33:50;;;;;;;4.90;3.13;;;;;;;14.72;100.00;99191.28;4229268;28;20302;-61
2022/07/31 05:36:18;;;;;;;5.27;3.10;;;;;;;14.65;100.00;99193.13;4242975;28;20310;-62
2022/07/31 05:38:45;;;;;;;4.07;3.40;;;;;;;14.65;100.00;99191.25;4221835;28;20596;-63
2022/07/31 05:41:12;;;;;;;4.27;2.90;;;;;;;14.67;100.00;99188.41;4265936;28;20322;-62
2022/07/31 05:43:39;;;;;;;3.27;2.47;;;;;;;14.64;100.00;99188.81;4235142;28;22157;-62
2022/07/31 05:46:06;;;;;;;3.33;2.80;;;;;;;14.61;100.00;99182.00;4236957;28;20228;-62
2022/07/31 05:48:32;;;;;;;3.07;2.50;;;;;;;14.61;100.00;99187.38;4198008;28;20278;-63
2022/07/31 05:50:59;;;;;;;7.87;3.47;;;;;;;14.66;100.00;99192.13;4210877;28;20229;-63
2022/07/31 05:53:31;;;;;;;3.93;2.83;;;;;;;14.61;100.00;99184.69;4195103;28;20241;-66
2022/07/31 05:55:57;;;;;;;4.00;2.40;;;;;;;14.64;100.00;99183.44;4199897;28;21708;-62
2022/07/31 05:58:24;;;;;;;4.07;3.10;;;;;;;14.67;100.00;99188.41;4233757;28;20241;-64
2022/07/31 06:00:50;;;;;;;3.23;2.63;;;;;;;14.59;100.00;99184.06;4204088;28;20783;-66
2022/07/31 06:03:22;;;;;;;3.77;2.83;;;;;;;14.67;100.00;99189.22;4229294;28;21846;-63
2022/07/31 06:05:50;;;;;;;4.70;2.70;;;;;;;14.64;100.00;99186.94;4215345;28;20235;-63
2022/07/31 06:08:16;;;;;;;4.33;3.10;;;;;;;14.59;100.00;99186.72;4199818;28;20233;-64
2022/07/31 06:10:43;;;;;;;4.20;2.70;;;;;;;14.61;100.00;99186.50;4203539;28;20626;-63
2022/07/31 06:13:10;;;;;;;3.37;2.63;;;;;;;14.65;100.00;99180.56;4216890;28;20232;-67
2022/07/31 06:15:37;;;;;;;4.70;2.93;;;;;;;14.61;100.00;99181.16;4204790;28;20517;-69
2022/07/31 06:18:07;;;;;;;3.27;2.50;;;;;;;14.66;100.00;99182.22;4222717;28;20253;-65
2022/07/31 06:20:34;;;;;;;3.20;2.30;;;;;;;14.68;100.00;99179.31;4222346;28;22213;-61
2022/07/31 06:23:04;;;;;;;3.27;2.40;;;;;;;14.67;100.00;99186.53;4238833;28;21411;-64
2022/07/31 06:25:51;;;;;;;3.27;2.30;;;;;;;14.68;100.00;99182.84;4215943;28;20556;-62
2022/07/31 06:28:18;;;;;;;4.57;2.50;;;;;;;14.67;100.00;99178.50;4201346;28;22818;-61
2022/07/31 06:30:47;;;;;;;3.07;2.53;;;;;;;14.71;100.00;99179.75;4219136;28;20356;-62
2022/07/31 06:33:13;;;;;;;3.17;2.50;;;;;;;14.64;100.00;99178.91;4210196;28;20281;-63
2022/07/31 06:35:42;;;;;;;4.93;2.20;;;;;;;14.63;100.00;99181.78;4201155;28;21303;-60
2022/07/31 06:38:09;;;;;;;3.87;2.40;;;;;;;14.59;100.00;99180.56;4207604;28;21668;-76
2022/07/31 06:40:36;;;;;;;4.07;2.20;;;;;;;14.57;100.00;99176.22;4202839;28;20364;-72
2022/07/31 06:43:05;;;;;;;6.20;2.40;;;;;;;14.51;100.00;99178.84;4207471;28;22609;-77
2022/07/31 06:45:32;;;;;;;7.13;2.43;;;;;;;14.45;100.00;99179.66;4217375;28;20371;-75
2022/07/31 06:48:17;;;;;;;2.70;2.20;;;;;;;14.43;100.00;99176.34;4247814;28;20247;-71
2022/07/31 06:50:44;;;;;;;3.63;2.13;;;;;;;14.43;100.00;99171.00;4197908;28;20323;-73
2022/07/31 06:53:11;;;;;;;3.27;2.60;;;;;;;14.48;100.00;99171.22;4231664;28;20228;-73
2022/07/31 06:55:37;;;;;;;3.37;2.17;;;;;;;14.44;100.00;99172.66;4198960;28;20299;-72
2022/07/31 06:58:10;;;;;;;2.47;2.20;;;;;;;14.47;100.00;99172.22;4203882;28;20241;-73
2022/07/31 07:00:36;;;;;;;2.37;2.17;;;;;;;14.47;100.00;99172.22;4208804;28;22746;-73
2022/07/31 07:03:03;;;;;;;2.93;2.63;;;;;;;14.51;100.00;99174.31;4208188;28;20284;-75
2022/07/31 07:05:30;;;;;;;4.20;3.00;;;;;;;14.50;100.00;99172.66;4195727;28;21285;-74
2022/07/31 07:07:57;;;;;;;4.43;3.17;;;;;;;14.49;100.00;99171.03;4201547;28;21035;-73
2022/07/31 07:10:23;;;;;;;3.77;3.00;;;;;;;14.57;100.00;99170.03;4217501;28;20287;-74
2022/07/31 07:12:50;;;;;;;3.20;2.90;;;;;;;14.56;100.00;99168.38;4215304;28;20237;-75
2022/07/31 07:15:19;;;;;;;2.97;2.67;;;;;;;14.55;100.00;99164.06;4213611;28;22939;-70
2022/07/31 07:17:45;;;;;;;3.37;2.70;;;;;;;14.57;100.00;99164.69;4216463;28;20636;-75
2022/07/31 07:20:12;;;;;;;3.33;2.90;;;;;;;14.59;100.00;99168.00;4204344;28;20256;-73
2022/07/31 07:22:39;;;;;;;3.63;2.87;;;;;;;14.65;100.00;99169.03;4204613;28;25198;-75
2022/07/31 07:25:05;;;;;;;3.70;3.10;;;;;;;14.61;100.00;99163.28;4197096;28;20360;-75
2022/07/31 07:27:32;;;;;;;7.20;3.80;;;;;;;14.68;100.00;99172.13;4198903;28;20229;-78
2022/07/31 07:29:59;;;;;;;4.23;3.10;;;;;;;14.75;100.00;99169.47;4205494;28;20251;-78
2022/07/31 07:32:25;;;;;;;4.13;3.30;;;;;;;14.73;100.00;99168.84;4199244;28;20237;-74
2022/07/31 07:34:55;;;;;;;4.30;3.57;;;;;;;14.75;100.00;99172.97;4222013;28;20240;-76
2022/07/31 07:37:26;;;;;;;4.57;3.73;;;;;;;14.81;100.00;99167.81;4197025;28;20233;-75
2022/07/31 07:39:52;;;;;;;5.57;4.40;;;;;;;14.76;100.00;99161.22;4187756;28;20253;-75
2022/07/31 07:42:19;;;;;;;4.90;4.13;;;;;;;14.80;100.00;99171.50;4220375;28;21686;-78
2022/07/31 07:44:46;;;;;;;5.73;4.27;;;;;;;14.75;100.00;99167.63;4195590;28;20318;-76
2022/07/31 07:47:12;;;;;;;6.40;4.43;;;;;;;14.82;100.00;99164.97;4209487;28;20238;-75
2022/07/31 07:49:39;;;;;;;5.93;4.60;;;;;;;14.85;100.00;99169.06;4201153;28;20341;-77
2022/07/31 07:52:06;;;;;;;4.60;4.20;;;;;;;14.91;100.00;99166.41;4232579;28;21680;-77
2022/07/31 07:54:33;;;;;;;5.90;4.80;;;;;;;14.91;100.00;99168.25;4197805;28;20413;-75
2022/07/31 07:56:59;;;;;;;5.53;4.93;;;;;;;14.91;100.00;99162.88;4221443;28;20228;-79
2022/07/31 07:59:26;;;;;;;7.43;5.63;;;;;;;14.93;100.00;99163.50;4201772;28;20235;-77
2022/07/31 08:01:52;;;;;;;6.00;5.40;;;;;;;15.02;100.00;99164.16;4233534;28;21121;-74
2022/07/31 08:04:19;;;;;;;7.73;6.20;;;;;;;15.03;100.00;99161.28;4205097;28;21762;-77
2022/07/31 08:06:46;;;;;;;6.60;5.90;;;;;;;15.03;100.00;99161.28;4214353;28;20239;-73
2022/07/31 08:09:12;;;;;;;8.10;6.40;;;;;;;15.05;100.00;99163.72;4211696;28;20229;-75
2022/07/31 08:11:39;;;;;;;7.83;6.43;;;;;;;15.08;100.00;99172.19;4204647;28;21429;-76
2022/07/31 08:14:06;;;;;;;9.27;7.13;;;;;;;15.07;100.00;99165.16;4215726;28;20376;-74
2022/07/31 08:16:32;;;;;;;9.33;6.90;;;;;;;15.09;100.00;99167.66;4216146;28;22236;-73
2022/07/31 08:18:59;;;;;;;8.30;7.33;;;;;;;15.12;100.00;99165.38;4222889;28;20511;-76
2022/07/31 08:21:26;;;;;;;9.63;7.53;;;;;;;15.12;100.00;99168.06;4229110;28;20230;-70
2022/07/31 08:23:52;;;;;;;9.27;7.20;;;;;;;15.18;100.00;99169.09;4190926;28;21733;-71
2022/07/31 08:26:19;;;;;;;11.40;7.87;;;;;;;15.28;100.00;99174.84;4208761;28;20240;-75
2022/07/31 08:28:46;;;;;;;7.93;6.60;;;;;;;15.28;100.00;99172.19;4205733;28;20241;-75
2022/07/31 08:31:17;;;;;;;15.07;10.70;;;;;;;15.25;100.00;99174.47;4201545;28;21251;-77
2022/07/31 08:33:44;;;;;;;9.10;7.40;;;;;;;15.26;100.00;99166.19;4215352;28;20237;-74
2022/07/31 08:36:11;;;;;;;10.70;8.33;;;;;;;15.26;100.00;99171.56;4202410;28;20492;-75
2022/07/31 08:38:38;;;;;;;9.60;8.17;;;;;;;15.35;100.00;99169.50;4212163;28;22795;-73
2022/07/31 08:41:04;;;;;;;9.07;7.47;;;;;;;15.42;100.00;99175.69;4197473;28;20242;-72
2022/07/31 08:43:31;;;;;;;12.17;7.80;;;;;;;15.43;100.00;99176.50;4206049;28;22522;-75
2022/07/31 08:46:18;;;;;;;9.57;8.43;;;;;;;15.45;100.00;99174.44;4207163;28;20254;-76
2022/07/31 08:48:45;;;;;;;12.60;8.23;;;;;;;15.40;100.00;99172.38;4207522;28;21199;-72
2022/07/31 08:51:12;;;;;;;10.80;7.93;;;;;;;15.44;100.00;99165.56;4198524;28;23548;-76
2022/07/31 08:53:41;;;;;;;10.63;8.40;;;;;;;15.49;100.00;99175.69;4197586;28;20303;-72
2022/07/31 08:56:08;;;;;;;10.37;8.70;;;;;;;15.47;100.00;99173.19;4197482;28;20403;-75
2022/07/31 08:58:36;;;;;;;11.13;9.13;;;;;;;15.51;100.00;99169.06;4207314;28;20288;-76
2022/07/31 09:01:06;;;;;;;11.53;8.83;;;;;;;15.50;100.00;99172.81;4208359;28;23586;-73
2022/07/31 09:03:34;;;;;;;11.90;9.07;;;;;;;15.56;100.00;99176.50;4195750;28;20419;-75
2022/07/31 09:06:04;;;;;;;12.17;8.63;;;;;;;15.50;100.00;99177.31;4203666;28;20424;-74
2022/07/31 09:08:35;;;;;;;12.40;9.17;;;;;;;15.52;100.00;99169.88;4200665;28;25600;-60
2022/07/31 09:11:03;;;;;;;10.87;9.17;;;;;;;15.59;100.00;99170.72;4197769;28;20233;-62
2022/07/31 09:13:33;;;;;;;13.40;8.97;;;;;;;15.72;100.00;99177.94;4201693;28;20294;-63
2022/07/31 09:16:00;;;;;;;10.63;9.33;;;;;;;15.61;100.00;99180.19;4192102;28;20271;-65
2022/07/31 09:18:27;;;;;;;10.47;8.87;;;;;;;15.67;100.00;99183.91;4208677;28;20656;-61
2022/07/31 09:21:04;;;;;;;12.80;9.83;;;;;;;15.65;100.00;99183.28;4202254;28;20333;-64
2022/07/31 09:23:32;;;;;;;12.50;10.07;;;;;;;15.67;100.00;99183.09;4207307;28;20343;-62
2022/07/31 09:26:04;;;;;;;11.53;9.57;;;;;;;15.76;100.00;99187.22;4200283;28;20358;-64
2022/07/31 09:28:32;;;;;;;13.27;10.00;;;;;;;15.75;100.00;99190.94;4204254;28;20257;-65
2022/07/31 09:30:59;;;;;;;14.20;10.30;;;;;;;15.68;100.00;99192.78;4204835;28;21947;-64
2022/07/31 09:33:28;;;;;;;10.67;8.77;;;;;;;15.77;100.00;99196.91;4233556;28;20238;-62
2022/07/31 09:35:55;;;;;;;11.83;9.63;;;;;;;15.69;100.00;99203.31;4205592;28;21022;-63
2022/07/31 09:38:30;;;;;;;11.73;9.43;;;;;;;15.73;100.00;99196.53;4211665;28;20244;-63
2022/07/31 09:41:08;;;;;;;12.57;10.10;;;;;;;15.69;100.00;99208.66;4192602;28;20244;-62
2022/07/31 09:43:59;;;;;;;13.00;10.00;;;;;;;15.78;100.00;99195.88;4212411;28;20268;-67
2022/07/31 09:46:37;;;;;;;11.50;10.00;;;;;;;15.78;100.00;99201.22;4214613;28;26025;-68
2022/07/31 09:49:05;;;;;;;11.73;10.00;;;;;;;15.77;100.00;99199.59;4205038;28;21291;-68
2022/07/31 09:51:42;;;;;;;11.50;9.83;;;;;;;15.74;100.00;99202.72;4199710;28;20431;-64
2022/07/31 09:54:24;;;;;;;11.77;8.97;;;;;;;15.80;100.00;99208.06;4204642;28;20233;-66
2022/07/31 09:56:51;;;;;;;12.53;9.83;;;;;;;15.83;100.00;99204.13;4213773;28;20296;-62
2022/07/31 09:59:18;;;;;;;11.30;9.40;;;;;;;15.80;100.00;99191.13;4211587;28;22033;-66
2022/07/31 10:01:47;;;;;;;13.37;10.73;;;;;;;15.85;100.00;99193.19;4202857;28;21112;-63
2022/07/31 10:04:18;;;;;;;12.13;9.33;;;;;;;15.84;100.00;99203.09;4208712;28;20525;-64
2022/07/31 10:06:47;;;;;;;13.63;10.10;;;;;;;15.86;100.00;99206.41;4204385;28;21801;-64
2022/07/31 10:09:17;;;;;;;11.87;9.20;;;;;;;15.88;100.00;99206.19;4217292;28;20233;-72
2022/07/31 10:11:46;;;;;;;12.67;8.97;;;;;;;15.84;100.00;99208.47;4203724;28;21772;-61
2022/07/31 10:14:18;;;;;;;10.63;9.30;;;;;;;15.82;100.00;99203.28;4208711;28;20323;-63
2022/07/31 10:16:45;;;;;;;9.97;8.53;;;;;;;15.97;100.00;99200.38;4235037;28;20232;-62
2022/07/31 10:19:13;;;;;;;11.37;8.90;;;;;;;15.87;100.00;99194.63;4238329;28;20248;-63
2022/07/31 10:21:43;;;;;;;10.00;8.13;;;;;;;15.98;100.00;99201.22;4214934;28;20300;-62
2022/07/31 10:24:11;;;;;;;11.70;9.20;;;;;;;15.96;100.00;99204.09;4210494;28;22210;-64
2022/07/31 10:26:38;;;;;;;9.40;8.40;;;;;;;16.01;100.00;99204.31;4211628;28;20332;-68
2022/07/31 10:29:25;;;;;;;14.03;9.20;;;;;;;15.99;100.00;99211.75;4212512;28;20807;-66
2022/07/31 10:31:57;;;;;;;10.13;8.83;;;;;;;16.00;100.00;99216.06;4232186;28;20240;-64
2022/07/31 10:34:25;;;;;;;11.00;7.77;;;;;;;16.12;100.00;99212.72;4227709;28;20249;-62
2022/07/31 10:36:53;;;;;;;10.03;7.93;;;;;;;16.13;100.00;99212.53;4233824;28;20525;-65
2022/07/31 10:39:43;;;;;;;8.23;7.30;;;;;;;16.08;100.00;99214.19;4211123;28;21758;-63
2022/07/31 10:42:30;;;;;;;9.97;8.23;;;;;;;16.02;100.00;99215.84;4186716;28;20248;-63
2022/07/31 10:45:07;;;;;;;10.43;8.30;;;;;;;15.89;100.00;99219.38;4212468;28;21116;-67
2022/07/31 10:47:34;;;;;;;10.20;7.50;;;;;;;15.93;100.00;99220.63;4190992;28;20237;-61
2022/07/31 10:50:01;;;;;;;8.50;7.60;;;;;;;16.00;100.00;99218.75;4205973;28;21521;-49
2022/07/31 10:52:30;;;;;;;9.47;7.27;;;;;;;16.11;100.00;99222.66;4209649;28;20254;-44
2022/07/31 10:54:59;;;;;;;12.23;8.77;;;;;;;16.15;100.00;99229.22;4206473;28;20228;-46
2022/07/31 10:57:28;;;;;;;10.17;7.70;;;;;;;16.17;100.00;99224.47;4197844;28;20503;-45
2022/07/31 10:59:55;;;;;;;10.60;6.80;;;;;;;16.22;100.00;99229.19;4200798;28;20241;-45
2022/07/31 11:02:33;;;;;;;8.57;6.90;;;;;;;16.13;100.00;99231.31;4212286;28;20289;-42
2022/07/31 11:05:14;;;;;;;10.40;6.80;;;;;;;16.17;100.00;99229.03;4200975;28;22167;-42
2022/07/31 11:07:43;;;;;;;8.70;6.23;;;;;;;16.18;100.00;99222.63;4196591;28;20596;-44
2022/07/31 11:10:16;;;;;;;7.93;5.77;;;;;;;16.22;100.00;99234.56;4205479;28;21695;-47
2022/07/31 11:12:43;;;;;;;8.90;6.17;;;;;;;16.15;100.00;99231.91;4209560;28;20303;-60
2022/07/31 11:15:37;;;;;;;8.70;6.30;;;;;;;16.16;100.00;99224.69;4216538;28;20231;-61
2022/07/31 11:18:14;;;;;;;9.73;6.33;;;;;;;16.20;100.00;99226.75;4231753;28;21104;-64
2022/07/31 11:21:01;;;;;;;8.07;6.57;;;;;;;16.24;100.00;99232.50;4209003;28;21400;-64
2022/07/31 11:23:48;;;;;;;8.13;5.97;;;;;;;16.31;100.00;99227.13;4226523;28;20348;-64
2022/07/31 11:26:27;;;;;;;7.90;6.07;;;;;;;16.34;100.00;99237.44;4212515;28;20519;-64
2022/07/31 11:29:11;;;;;;;7.60;6.03;;;;;;;16.31;100.00;99238.69;4218387;28;20244;-66